地図

経路データ

SID SEASON NUMBER BASIN SUBBASIN NAME ISO_TIME NATURE LAT LON WMO_WIND WMO_PRES WMO_AGENCY TRACK_TYPE DIST2LAND LANDFALL IFLAG USA_AGENCY USA_ATCF_ID USA_LAT USA_LON USA_RECORD USA_STATUS USA_WIND USA_PRES USA_SSHS USA_R34_NE USA_R34_SE USA_R34_SW USA_R34_NW USA_R50_NE USA_R50_SE USA_R50_SW USA_R50_NW USA_R64_NE USA_R64_SE USA_R64_SW USA_R64_NW USA_POCI USA_ROCI USA_RMW USA_EYE TOKYO_LAT TOKYO_LON TOKYO_GRADE TOKYO_WIND TOKYO_PRES TOKYO_R50_DIR TOKYO_R50_LONG TOKYO_R50_SHORT TOKYO_R30_DIR TOKYO_R30_LONG TOKYO_R30_SHORT TOKYO_LAND CMA_LAT CMA_LON CMA_CAT CMA_WIND CMA_PRES HKO_LAT HKO_LON HKO_CAT HKO_WIND HKO_PRES NEWDELHI_LAT NEWDELHI_LON NEWDELHI_GRADE NEWDELHI_WIND NEWDELHI_PRES NEWDELHI_CI NEWDELHI_DP NEWDELHI_POCI REUNION_LAT REUNION_LON REUNION_TYPE REUNION_WIND REUNION_PRES REUNION_TNUM REUNION_CI REUNION_RMW REUNION_R34_NE REUNION_R34_SE REUNION_R34_SW REUNION_R34_NW REUNION_R50_NE REUNION_R50_SE REUNION_R50_SW REUNION_R50_NW REUNION_R64_NE REUNION_R64_SE REUNION_R64_SW REUNION_R64_NW BOM_LAT BOM_LON BOM_TYPE BOM_WIND BOM_PRES BOM_TNUM BOM_CI BOM_RMW BOM_R34_NE BOM_R34_SE BOM_R34_SW BOM_R34_NW BOM_R50_NE BOM_R50_SE BOM_R50_SW BOM_R50_NW BOM_R64_NE BOM_R64_SE BOM_R64_SW BOM_R64_NW BOM_ROCI BOM_POCI BOM_EYE BOM_POS_METHOD BOM_PRES_METHOD NADI_LAT NADI_LON NADI_CAT NADI_WIND NADI_PRES WELLINGTON_LAT WELLINGTON_LON WELLINGTON_WIND WELLINGTON_PRES DS824_LAT DS824_LON DS824_STAGE DS824_WIND DS824_PRES TD9636_LAT TD9636_LON TD9636_STAGE TD9636_WIND TD9636_PRES TD9635_LAT TD9635_LON TD9635_WIND TD9635_PRES TD9635_ROCI NEUMANN_LAT NEUMANN_LON NEUMANN_CLASS NEUMANN_WIND NEUMANN_PRES MLC_LAT MLC_LON MLC_CLASS MLC_WIND MLC_PRES USA_GUST BOM_GUST BOM_GUST_PER REUNION_GUST REUNION_GUST_PER USA_SEAHGT USA_SEARAD_NE USA_SEARAD_SE USA_SEARAD_SW USA_SEARAD_NW STORM_SPEED STORM_DIR
1923018S12152 1923 4 SP EA NOT_NAMED 1923-01-17 12:00:00 NR -12.4000 152.200 main 259 252 __________O___ -1 -12.4000 152.200 7 5 230
1923018S12152 1923 4 SP EA NOT_NAMED 1923-01-17 15:00:00 NR -12.5515 152.018 main 265 259 __________P___ -1 -12.5515 152.018 7 5 229
1923018S12152 1923 4 SP EA NOT_NAMED 1923-01-17 18:00:00 NR -12.7224 151.820 main 263 263 __________P___ -1 -12.7224 151.820 7 6 228
1923018S12152 1923 4 SP EA NOT_NAMED 1923-01-17 21:00:00 NR -12.9321 151.586 main 275 275 __________P___ -1 -12.9321 151.586 7 7 227
1923018S12152 1923 4 SP EA NOT_NAMED 1923-01-18 00:00:00 NR -13.2000 151.300 main 296 296 __________O___ -1 -13.2000 151.300 7 9 226
1923018S12152 1923 4 SP EA NOT_NAMED 1923-01-18 03:00:00 NR -13.5370 150.951 main 320 320 __________P___ -1 -13.5370 150.951 7 10 225
1923018S12152 1923 4 SP EA NOT_NAMED 1923-01-18 06:00:00 NR -13.9202 150.553 main 359 358 __________P___ -1 -13.9202 150.553 7 11 226
1923018S12152 1923 4 SP EA NOT_NAMED 1923-01-18 09:00:00 NR -14.3182 150.129 main 403 403 __________P___ -1 -14.3182 150.129 7 11 227
1923018S12152 1923 4 SP EA NOT_NAMED 1923-01-18 12:00:00 NR -14.7000 149.700 main 451 420 __________O___ -1 -14.7000 149.700 7 11 229
1923018S12152 1923 4 SP EA NOT_NAMED 1923-01-18 15:00:00 NR -15.0173 149.295 main 420 372 __________P___ -1 -15.0173 149.295 7 10 232
1923018S12152 1923 4 SP EA NOT_NAMED 1923-01-18 18:00:00 NR -15.3148 148.892 main 372 318 __________P___ -1 -15.3148 148.892 7 10 233
1923018S12152 1923 4 SP EA NOT_NAMED 1923-01-18 21:00:00 NR -15.6048 148.492 main 318 265 __________P___ -1 -15.6048 148.492 7 10 233
1923018S12152 1923 4 SP EA NOT_NAMED 1923-01-19 00:00:00 NR -15.9000 148.100 main 265 221 __________O___ -1 -15.9000 148.100 7 9 229
1923018S12152 1923 4 SP EA NOT_NAMED 1923-01-19 03:00:00 NR -16.2211 147.754 main 221 169 __________P___ -1 -16.2211 147.754 7 9 226
1923018S12152 1923 4 SP EA NOT_NAMED 1923-01-19 06:00:00 NR -16.5488 147.409 main 169 120 __________P___ -1 -16.5488 147.409 7 10 226
1923018S12152 1923 4 SP EA NOT_NAMED 1923-01-19 09:00:00 NR -16.8771 147.035 main 110 57 __________P___ -1 -16.8771 147.035 7 10 230
1923018S12152 1923 4 SP EA NOT_NAMED 1923-01-19 12:00:00 NR -17.2000 146.600 main 57 10 __________O___ -1 -17.2000 146.600 7 11 227
1923018S12152 1923 4 SP EA NOT_NAMED 1923-01-19 15:00:00 NR -17.6424 146.178 main 10 0 __________P___ -1 -17.6424 146.178 7 12 226
1923018S12152 1923 4 SP EA NOT_NAMED 1923-01-19 18:00:00 NR -18.0574 145.676 main 0 0 __________P___ -1 -18.0574 145.676 7 13 237
1923018S12152 1923 4 SP EA NOT_NAMED 1923-01-19 21:00:00 NR -18.3439 145.036 main 0 0 __________P___ -1 -18.3439 145.036 7 14 256
1923018S12152 1923 4 SP EA NOT_NAMED 1923-01-20 00:00:00 NR -18.4000 144.200 main 0 0 __________O___ -1 -18.4000 144.200 7 19 277
1923018S12152 1923 4 SP EA NOT_NAMED 1923-01-20 03:00:00 NR -18.1309 143.073 main 0 0 __________P___ -1 -18.1309 143.073 7 24 289
1923018S12152 1923 4 SP EA NOT_NAMED 1923-01-20 06:00:00 NR -17.6204 141.769 main 0 0 __________P___ -1 -17.6204 141.769 7 28 295
1923018S12152 1923 4 SP EA NOT_NAMED 1923-01-20 09:00:00 NR -16.9490 140.407 main 64 64 __________P___ -1 -16.9490 140.407 7 29 299
1923018S12152 1923 4 SP EA NOT_NAMED 1923-01-20 12:00:00 NR -16.2000 139.100 main 79 78 __________O___ -1 -16.2000 139.100 7 28 303
1923018S12152 1923 4 SP EA NOT_NAMED 1923-01-20 15:00:00 NR -15.4168 137.946 main 92 33 __________P___ -1 -15.4168 137.946 7 27 307
1923018S12152 1923 4 SP EA NOT_NAMED 1923-01-20 18:00:00 NR -14.5937 136.869 main 33 0 __________P___ -1 -14.5937 136.869 7 26 309
1923018S12152 1923 4 SP EA NOT_NAMED 1923-01-20 21:00:00 NR -13.8237 135.882 main 0 0 __________P___ -1 -13.8237 135.882 7 23 308
1923018S12152 1923 4 SP EA NOT_NAMED 1923-01-21 00:00:00 NR -13.2000 135.000 main 0 0 __________O___ -1 -13.2000 135.000 7 19 303
1923018S12152 1923 4 SI WA NOT_NAMED 1923-01-21 03:00:00 NR -12.8149 134.265 main 0 0 __________P___ -1 -12.8149 134.265 7 15 294
1923018S12152 1923 4 SI WA NOT_NAMED 1923-01-21 06:00:00 NR -12.5866 133.617 main 0 0 __________P___ -1 -12.5866 133.617 7 13 286
1923018S12152 1923 4 SI WA NOT_NAMED 1923-01-21 09:00:00 NR -12.4651 132.986 main 0 0 __________P___ -1 -12.4651 132.986 7 13 278
1923018S12152 1923 4 SI WA NOT_NAMED 1923-01-21 12:00:00 NR -12.4000 132.300 main 0 0 __________O___ -1 -12.4000 132.300 7 15 276
1923018S12152 1923 4 SI WA NOT_NAMED 1923-01-21 15:00:00 NR -12.2955 131.429 main 0 0 __________P___ -1 -12.2955 131.429 7 18 275
1923018S12152 1923 4 SI WA NOT_NAMED 1923-01-21 18:00:00 NR -12.2338 130.500 main 35 35 __________P___ -1 -12.2338 130.500 7 18 273
1923018S12152 1923 4 SI WA NOT_NAMED 1923-01-21 21:00:00 NR -12.2049 129.572 main 70 70 __________P___ -1 -12.2049 129.572 7 18 271
1923018S12152 1923 4 SI WA NOT_NAMED 1923-01-22 00:00:00 NR -12.2000 128.700 main 158 158 __________O___ -1 -12.2000 128.700 7 16 271
1923018S12152 1923 4 SI WA NOT_NAMED 1923-01-22 03:00:00 NR -12.1695 127.964 main 204 180 __________P___ -1 -12.1695 127.964 7 14 271
1923018S12152 1923 4 SI WA NOT_NAMED 1923-01-22 06:00:00 NR -12.1657 127.290 main 180 179 __________P___ -1 -12.1657 127.290 7 13 268
1923018S12152 1923 4 SI WA NOT_NAMED 1923-01-22 09:00:00 NR -12.2041 126.645 main 182 180 __________P___ -1 -12.2041 126.645 7 13 264
1923018S12152 1923 4 SI WA NOT_NAMED 1923-01-22 12:00:00 NR -12.3000 126.000 main 190 182 __________O___ -1 -12.3000 126.000 7 14 258
1923018S12152 1923 4 SI WA NOT_NAMED 1923-01-22 15:00:00 NR -12.4885 125.231 main 194 194 __________P___ -1 -12.4885 125.231 7 16 254
1923018S12152 1923 4 SI WA NOT_NAMED 1923-01-22 18:00:00 NR -12.7286 124.467 main 215 212 __________P___ -1 -12.7286 124.467 7 15 251
1923018S12152 1923 4 SI WA NOT_NAMED 1923-01-22 21:00:00 NR -12.9793 123.769 main 234 234 __________P___ -1 -12.9793 123.769 7 13 249
1923018S12152 1923 4 SI WA NOT_NAMED 1923-01-23 00:00:00 NR -13.2000 123.200 main 266 266 __________O___ -1 -13.2000 123.200 7 10 249
1923018S12152 1923 4 SI WA NOT_NAMED 1923-01-23 03:00:00 NR -13.3306 122.842 main 297 291 __________P___ -1 -13.3306 122.842 7 6 248
1923018S12152 1923 4 SI WA NOT_NAMED 1923-01-23 06:00:00 NR -13.4285 122.614 main 311 304 __________P___ -1 -13.4285 122.614 7 4 244
1923018S12152 1923 4 SI WA NOT_NAMED 1923-01-23 09:00:00 NR -13.5122 122.454 main 311 310 __________P___ -1 -13.5122 122.454 7 4 241
1923018S12152 1923 4 SI WA NOT_NAMED 1923-01-23 12:00:00 NR -13.6000 122.300 main 318 318 __________O___ -1 -13.6000 122.300 7 4 243
1923018S12152 1923 4 SI WA NOT_NAMED 1923-01-23 15:00:00 NR -13.7179 122.045 main 327 317 __________P___ -1 -13.7179 122.045 7 6 244
1923018S12152 1923 4 SI WA NOT_NAMED 1923-01-23 18:00:00 NR -13.8426 121.785 main 324 312 __________P___ -1 -13.8426 121.785 7 6 243
1923018S12152 1923 4 SI WA NOT_NAMED 1923-01-23 21:00:00 NR -13.9710 121.533 main 317 313 __________P___ -1 -13.9710 121.533 7 5 241
1923018S12152 1923 4 SI WA NOT_NAMED 1923-01-24 00:00:00 NR -14.1000 121.300 main 318 315 __________O___ -1 -14.1000 121.300 7 5 239
1923018S12152 1923 4 SI WA NOT_NAMED 1923-01-24 03:00:00 NR -14.2290 121.099 main 321 312 __________P___ -1 -14.2290 121.099 7 5 235
1923018S12152 1923 4 SI WA NOT_NAMED 1923-01-24 06:00:00 NR -14.3574 120.920 main 318 317 __________P___ -1 -14.3574 120.920 7 4 233
1923018S12152 1923 4 SI WA NOT_NAMED 1923-01-24 09:00:00 NR -14.4821 120.756 main 317 317 __________P___ -1 -14.4821 120.756 7 4 232
1923018S12152 1923 4 SI WA NOT_NAMED 1923-01-24 12:00:00 NR -14.6000 120.600 main 325 324 __________O___ -1 -14.6000 120.600 7 4 233
1923018S12152 1923 4 SI WA NOT_NAMED 1923-01-24 15:00:00 NR -14.7153 120.443 main 332 325 __________P___ -1 -14.7153 120.443 7 4 233
1923018S12152 1923 4 SI WA NOT_NAMED 1923-01-24 18:00:00 NR -14.8224 120.292 main 332 324 __________P___ -1 -14.8224 120.292 7 4 235
1923018S12152 1923 4 SI WA NOT_NAMED 1923-01-24 21:00:00 NR -14.9184 120.146 main 340 332 __________P___ -1 -14.9184 120.146 7 3 238
1923018S12152 1923 4 SI WA NOT_NAMED 1923-01-25 00:00:00 NR -15.0000 120.000 main 340 340 __________O___ -1 -15.0000 120.000 7 3 245
1923018S12152 1923 4 SI WA NOT_NAMED 1923-01-25 03:00:00 NR -15.0521 119.854 main 340 340 __________P___ -1 -15.0521 119.854 7 3 252
1923018S12152 1923 4 SI WA NOT_NAMED 1923-01-25 06:00:00 NR -15.0924 119.707 main 356 356 __________P___ -1 -15.0924 119.707 7 3 254
1923018S12152 1923 4 SI WA NOT_NAMED 1923-01-25 09:00:00 NR -15.1365 119.557 main 365 365 __________P___ -1 -15.1365 119.557 7 3 250
1923018S12152 1923 4 SI WA NOT_NAMED 1923-01-25 12:00:00 NR -15.2000 119.400 main 375 375 __________O___ -1 -15.2000 119.400 7 3 243
1923018S12152 1923 4 SI WA NOT_NAMED 1923-01-25 15:00:00 NR -15.2746 119.276 main 378 378 __________P___ -1 -15.2746 119.276 7 3 235
1923018S12152 1923 4 SI WA NOT_NAMED 1923-01-25 18:00:00 NR -15.3744 119.139 main 391 391 __________P___ -1 -15.3744 119.139 7 4 232
1923018S12152 1923 4 SI WA NOT_NAMED 1923-01-25 21:00:00 NR -15.5120 118.957 main 395 395 __________P___ -1 -15.5120 118.957 7 5 232
1923018S12152 1923 4 SI WA NOT_NAMED 1923-01-26 00:00:00 NR -15.7000 118.700 main 413 413 __________O___ -1 -15.7000 118.700 7 7 234
1923018S12152 1923 4 SI WA NOT_NAMED 1923-01-26 03:00:00 NR -15.9500 118.333 main 444 440 __________P___ -1 -15.9500 118.333 7 10 235
1923018S12152 1923 4 SI WA NOT_NAMED 1923-01-26 06:00:00 NR -16.2479 117.890 main 454 430 __________P___ -1 -16.2479 117.890 7 11 235
1923018S12152 1923 4 SI WA NOT_NAMED 1923-01-26 09:00:00 NR -16.5718 117.402 main 430 408 __________P___ -1 -16.5718 117.402 7 12 236
1923018S12152 1923 4 SI WA NOT_NAMED 1923-01-26 12:00:00 NR -16.9000 116.900 main 411 380 __________O___ -1 -16.9000 116.900 7 12 236
1923018S12152 1923 4 SI WA NOT_NAMED 1923-01-26 15:00:00 NR -17.2124 116.396 main 381 354 __________P___ -1 -17.2124 116.396 7 12 237
1923018S12152 1923 4 SI WA NOT_NAMED 1923-01-26 18:00:00 NR -17.5229 115.890 main 356 337 __________P___ -1 -17.5229 115.890 7 11 237
1923018S12152 1923 4 SI WA NOT_NAMED 1923-01-26 21:00:00 NR -17.8219 115.415 main 341 326 __________P___ -1 -17.8219 115.415 7 10 236
1923018S12152 1923 4 SI WA NOT_NAMED 1923-01-27 00:00:00 NR -18.1000 115.000 main 331 325 __________O___ -1 -18.1000 115.000 7 9 233
1923018S12152 1923 4 SI WA NOT_NAMED 1923-01-27 03:00:00 NR -18.3419 114.676 main 330 318 __________P___ -1 -18.3419 114.676 7 7 230
1923018S12152 1923 4 SI WA NOT_NAMED 1923-01-27 06:00:00 NR -18.5642 114.417 main 318 312 __________P___ -1 -18.5642 114.417 7 6 226
1923018S12152 1923 4 SI WA NOT_NAMED 1923-01-27 09:00:00 NR -18.7795 114.198 main 312 307 __________P___ -1 -18.7795 114.198 7 6 222
1923018S12152 1923 4 SI WA NOT_NAMED 1923-01-27 12:00:00 NR -19.0000 114.000 main 307 297 __________O___ -1 -19.0000 114.000 7 6 221
1923018S12152 1923 4 SI WA NOT_NAMED 1923-01-27 15:00:00 NR -19.2304 113.789 main 302 271 __________P___ -1 -19.2304 113.789 7 6 219
1923018S12152 1923 4 SI WA NOT_NAMED 1923-01-27 18:00:00 NR -19.4698 113.592 main 271 251 __________P___ -1 -19.4698 113.592 7 6 217
1923018S12152 1923 4 SI WA NOT_NAMED 1923-01-27 21:00:00 NR -19.7242 113.399 main 253 228 __________P___ -1 -19.7242 113.399 7 6 215
1923018S12152 1923 4 SI WA NOT_NAMED 1923-01-28 00:00:00 NR -20.0000 113.200 main 228 206 __________O___ -1 -20.0000 113.200 7 7 215
1923018S12152 1923 4 SI WA NOT_NAMED 1923-01-28 03:00:00 NR -20.2790 112.990 main 206 191 __________P___ -1 -20.2790 112.990 7 7 215
1923018S12152 1923 4 SI WA NOT_NAMED 1923-01-28 06:00:00 NR -20.5824 112.772 main 191 183 __________P___ -1 -20.5824 112.772 7 8 213
1923018S12152 1923 4 SI WA NOT_NAMED 1923-01-28 09:00:00 NR -20.9196 112.543 main 191 179 __________P___ -1 -20.9196 112.543 7 8 212
1923018S12152 1923 4 SI WA NOT_NAMED 1923-01-28 12:00:00 NR -21.3000 112.300 main 187 182 __________O___ -1 -21.3000 112.300 7 10 211
1923018S12152 1923 4 SI WA NOT_NAMED 1923-01-28 15:00:00 NR -21.7402 112.016 main 193 187 __________P___ -1 -21.7402 112.016 7 11 210
1923018S12152 1923 4 SI WA NOT_NAMED 1923-01-28 18:00:00 NR -22.2204 111.721 main 200 198 __________P___ -1 -22.2204 111.721 7 11 209
1923018S12152 1923 4 SI WA NOT_NAMED 1923-01-28 21:00:00 NR -22.7153 111.441 main 225 225 __________P___ -1 -22.7153 111.441 7 11 206
1923018S12152 1923 4 SI WA NOT_NAMED 1923-01-29 00:00:00 NR -23.2000 111.200 main 247 243 __________O___ -1 -23.2000 111.200 7 10 203
1923018S12152 1923 4 SI WA NOT_NAMED 1923-01-29 03:00:00 NR -23.6228 111.027 main 256 252 __________P___ -1 -23.6228 111.027 7 9 198
1923018S12152 1923 4 SI WA NOT_NAMED 1923-01-29 06:00:00 NR -24.0347 110.896 main 257 254 __________P___ -1 -24.0347 110.896 7 9 194
1923018S12152 1923 4 SI WA NOT_NAMED 1923-01-29 09:00:00 NR -24.4542 110.793 main 263 263 __________P___ -1 -24.4542 110.793 7 9 191
1923018S12152 1923 4 SI WA NOT_NAMED 1923-01-29 12:00:00 NR -24.9000 110.700 main 278 278 __________O___ -1 -24.9000 110.700 7 10 190
1923018S12152 1923 4 SI WA NOT_NAMED 1923-01-29 15:00:00 NR -25.3858 110.605 main 281 273 __________P___ -1 -25.3858 110.605 7 10 190
1923018S12152 1923 4 SI WA NOT_NAMED 1923-01-29 18:00:00 NR -25.9052 110.506 main 280 279 __________P___ -1 -25.9052 110.506 7 11 190
1923018S12152 1923 4 SI WA NOT_NAMED 1923-01-29 21:00:00 NR -26.4471 110.404 main 288 288 __________P___ -1 -26.4471 110.404 7 11 190
1923018S12152 1923 4 SI WA NOT_NAMED 1923-01-30 00:00:00 NR -27.0000 110.300 main 307 __________O___ -1 -27.0000 110.300 7 11 190

デジタル台風データ・検索

IBTrACS Databaseについて

本データベースは、米国NOAAが公開する1842年以降の世界の熱帯低気圧のベストトラックデータアーカイブInternational Best Track Archive for Climate Stewardship (IBTrACS)を、ウェブで閲覧しやすい形式に変換したものです。

最終更新日:2021-11-26